Time;durP1;ratioP1;P1;durP2;ratioP2;P2;SDS_P1;SDS_P2;PMS_P1;PMS_P2;Temp;Humidity;BMP_temperature;BMP_pressure;BME280_temperature;BME280_humidity;BME280_pressure;Samples;Min_cycle;Max_cycle;Signal;HPM_P1;HPM_P2
2021/07/22 00:01:04;;;;;;;1.77;1.67;;;17.00;98.00;;;;;;5111969;28;20462;-69
2021/07/22 00:03:32;;;;;;;1.60;1.23;;;16.90;98.00;;;;;;5111959;28;20505;-68
2021/07/22 00:06:00;;;;;;;1.67;1.40;;;17.00;98.00;;;;;;5112301;28;20455;-68
2021/07/22 00:08:29;;;;;;;2.50;1.80;;;17.00;98.00;;;;;;5111050;28;20582;-68
2021/07/22 00:10:56;;;;;;;2.50;1.40;;;16.90;98.00;;;;;;5112357;28;20487;-69
2021/07/22 00:13:23;;;;;;;2.03;1.47;;;16.90;98.00;;;;;;5110978;28;20875;-68
2021/07/22 00:15:51;;;;;;;2.07;1.67;;;16.80;98.00;;;;;;5112239;28;20509;-68
2021/07/22 00:18:18;;;;;;;1.90;1.50;;;16.90;98.00;;;;;;5112230;28;20451;-68
2021/07/22 00:20:45;;;;;;;1.40;1.27;;;16.90;98.00;;;;;;5112259;28;20470;-68
2021/07/22 00:23:13;;;;;;;1.70;1.30;;;16.90;98.00;;;;;;5112045;28;20842;-68
2021/07/22 00:25:43;;;;;;;3.00;1.53;;;16.70;98.00;;;;;;5112049;28;20921;-69
2021/07/22 00:28:10;;;;;;;1.93;1.40;;;16.70;98.00;;;;;;5111804;28;20536;-68
2021/07/22 00:30:38;;;;;;;1.87;1.40;;;16.70;98.00;;;;;;5112035;28;20455;-69
2021/07/22 00:33:05;;;;;;;2.13;1.40;;;16.60;98.00;;;;;;5110672;28;20459;-68
2021/07/22 00:35:32;;;;;;;1.63;1.30;;;16.60;98.00;;;;;;5112118;28;20516;-70
2021/07/22 00:37:59;;;;;;;1.53;1.40;;;16.50;98.00;;;;;;5112023;28;20459;-68
2021/07/22 00:40:26;;;;;;;1.40;1.30;;;16.50;98.00;;;;;;5111666;28;20499;-67
2021/07/22 00:43:05;;;;;;;2.07;1.60;;;16.40;98.00;;;;;;5112062;28;20491;-67
2021/07/22 00:45:32;;;;;;;1.70;1.50;;;16.50;98.00;;;;;;5113132;28;20859;-68
2021/07/22 00:48:01;;;;;;;1.50;1.13;;;16.60;98.00;;;;;;5116227;28;20447;-68
2021/07/22 00:50:28;;;;;;;1.50;1.40;;;16.60;98.00;;;;;;5116294;28;20454;-69
2021/07/22 00:52:56;;;;;;;2.43;1.47;;;16.70;98.00;;;;;;5115919;28;20459;-69
2021/07/22 00:55:24;;;;;;;2.40;1.40;;;16.70;98.00;;;;;;5116149;28;20842;-68
2021/07/22 00:57:51;;;;;;;1.53;1.50;;;16.70;98.00;;;;;;5115549;28;20465;-68
2021/07/22 01:00:21;;;;;;;1.70;1.50;;;16.60;98.00;;;;;;5115755;28;20455;-68
2021/07/22 01:02:48;;;;;;;1.90;1.60;;;16.60;98.00;;;;;;5115206;28;20954;-68
2021/07/22 01:05:15;;;;;;;1.40;1.30;;;16.50;98.00;;;;;;5115544;28;20504;-68
2021/07/22 01:07:42;;;;;;;3.00;1.30;;;16.50;98.00;;;;;;5115509;28;20884;-69
2021/07/22 01:10:11;;;;;;;1.67;1.50;;;16.40;98.00;;;;;;5114562;28;20486;-68
2021/07/22 01:12:39;;;;;;;1.40;1.20;;;16.40;98.00;;;;;;5115324;28;20508;-69
2021/07/22 01:15:07;;;;;;;1.90;1.60;;;16.40;98.00;;;;;;5115328;28;20520;-69
2021/07/22 01:17:42;;;;;;;2.27;1.60;;;16.50;98.00;;;;;;5115247;28;20957;-69
2021/07/22 01:20:13;;;;;;;1.80;1.47;;;16.60;98.00;;;;;;5115669;28;20882;-68
2021/07/22 01:22:40;;;;;;;1.93;1.23;;;16.60;98.00;;;;;;5115056;28;20455;-68
2021/07/22 01:25:09;;;;;;;1.40;1.40;;;16.50;98.00;;;;;;5115442;28;20454;-69
2021/07/22 01:27:36;;;;;;;1.50;1.50;;;16.50;98.00;;;;;;5115137;28;20475;-69
2021/07/22 01:30:03;;;;;;;10.30;1.40;;;16.30;98.00;;;;;;5115162;28;20972;-67
2021/07/22 01:32:31;;;;;;;1.70;1.60;;;16.20;98.00;;;;;;5113829;28;21120;-68
2021/07/22 01:35:01;;;;;;;1.40;1.30;;;16.10;98.00;;;;;;5115244;28;20462;-69
2021/07/22 01:37:30;;;;;;;1.60;1.20;;;16.00;98.00;;;;;;5115111;28;20601;-68
2021/07/22 01:39:57;;;;;;;1.70;1.37;;;16.00;98.00;;;;;;5114686;28;20455;-68
2021/07/22 01:42:24;;;;;;;1.30;1.27;;;16.10;98.00;;;;;;5115037;28;20450;-68
2021/07/22 01:44:51;;;;;;;1.77;1.33;;;16.00;98.00;;;;;;5114936;28;20463;-69
2021/07/22 01:47:18;;;;;;;1.80;1.60;;;16.00;98.00;;;;;;5115087;28;20516;-68
2021/07/22 01:49:45;;;;;;;1.40;1.20;;;16.00;98.00;;;;;;5114654;28;20555;-68
2021/07/22 01:52:12;;;;;;;1.70;1.33;;;16.20;98.00;;;;;;5113639;28;20447;-67
2021/07/22 01:54:41;;;;;;;2.13;1.40;;;16.20;98.00;;;;;;5114480;28;20977;-69
2021/07/22 01:57:08;;;;;;;1.40;1.23;;;16.10;98.00;;;;;;5114250;28;20454;-68
2021/07/22 01:59:38;;;;;;;2.43;1.43;;;16.00;98.00;;;;;;5114472;28;20455;-68
2021/07/22 02:02:06;;;;;;;1.90;1.50;;;16.00;98.00;;;;;;5114854;28;20504;-68
2021/07/22 02:04:34;;;;;;;1.90;1.30;;;15.80;98.00;;;;;;5113253;28;20459;-68
2021/07/22 02:07:01;;;;;;;1.80;1.40;;;15.80;98.00;;;;;;5114774;28;20975;-68
2021/07/22 02:09:28;;;;;;;1.50;1.43;;;15.90;98.00;;;;;;5114667;28;21064;-69
2021/07/22 02:11:59;;;;;;;1.50;1.40;;;16.00;98.00;;;;;;5114407;28;20520;-68
2021/07/22 02:14:27;;;;;;;1.40;1.30;;;16.10;98.00;;;;;;5114718;28;20454;-68
2021/07/22 02:16:54;;;;;;;1.50;1.30;;;16.10;98.00;;;;;;5114150;28;20519;-68
2021/07/22 02:19:21;;;;;;;1.93;1.47;;;15.90;98.00;;;;;;5114237;28;20815;-67
2021/07/22 02:21:48;;;;;;;1.40;1.20;;;15.80;98.00;;;;;;5114392;28;20542;-68
2021/07/22 02:24:16;;;;;;;1.70;1.50;;;15.70;98.00;;;;;;5112851;28;20479;-67
2021/07/22 02:26:43;;;;;;;1.30;1.17;;;15.70;98.00;;;;;;5113693;28;20470;-68
2021/07/22 02:29:12;;;;;;;3.30;1.67;;;15.80;98.00;;;;;;5114217;28;20992;-68
2021/07/22 02:31:39;;;;;;;1.43;1.30;;;15.80;98.00;;;;;;5113891;28;20956;-68
2021/07/22 02:34:12;;;;;;;1.30;1.30;;;15.70;98.00;;;;;;5113822;28;21021;-68
2021/07/22 02:36:39;;;;;;;1.40;1.20;;;15.70;98.00;;;;;;5113992;28;20451;-69
2021/07/22 02:39:06;;;;;;;1.67;1.30;;;15.60;98.00;;;;;;5113896;28;20523;-69
2021/07/22 02:41:33;;;;;;;1.70;1.30;;;15.50;98.00;;;;;;5113565;28;20491;-68
2021/07/22 02:44:00;;;;;;;1.50;1.33;;;15.50;98.00;;;;;;5113607;28;20452;-70
2021/07/22 02:46:29;;;;;;;3.10;1.30;;;15.60;98.00;;;;;;5113732;28;20495;-68
2021/07/22 02:48:57;;;;;;;3.43;2.07;;;15.50;98.00;;;;;;5112316;28;20988;-68
2021/07/22 02:51:24;;;;;;;1.30;1.17;;;15.50;98.00;;;;;;5113562;28;20451;-67
2021/07/22 02:53:51;;;;;;;2.27;1.30;;;15.40;98.00;;;;;;5113524;28;20476;-68
2021/07/22 02:56:18;;;;;;;1.30;1.20;;;15.30;98.00;;;;;;5113606;28;20512;-67
2021/07/22 02:58:45;;;;;;;1.50;1.37;;;15.20;98.00;;;;;;5112064;28;20539;-68
2021/07/22 03:01:13;;;;;;;2.67;1.40;;;15.30;98.00;;;;;;5113626;28;20459;-67
2021/07/22 03:03:41;;;;;;;1.50;1.10;;;15.20;98.00;;;;;;5113231;28;20462;-68
2021/07/22 03:06:08;;;;;;;1.33;1.23;;;15.30;98.00;;;;;;5113443;28;20461;-68
2021/07/22 03:08:36;;;;;;;1.40;1.40;;;15.30;98.00;;;;;;5112152;28;20455;-68
2021/07/22 03:11:04;;;;;;;1.80;1.20;;;15.30;98.00;;;;;;5113223;28;20455;-69
2021/07/22 03:13:31;;;;;;;1.33;1.00;;;15.30;98.00;;;;;;5113238;28;20524;-69
2021/07/22 03:15:58;;;;;;;1.77;1.30;;;15.40;98.00;;;;;;5113071;28;20459;-69
2021/07/22 03:18:25;;;;;;;1.50;1.30;;;15.50;98.00;;;;;;5113290;28;20971;-70
2021/07/22 03:20:54;;;;;;;2.40;1.67;;;15.30;98.00;;;;;;5112885;28;20925;-68
2021/07/22 03:23:22;;;;;;;3.10;1.87;;;15.20;98.00;;;;;;5113112;28;20516;-67
2021/07/22 03:25:49;;;;;;;2.17;1.67;;;15.10;98.00;;;;;;5112833;28;20489;-68
2021/07/22 03:28:16;;;;;;;1.50;1.47;;;15.20;98.00;;;;;;5113147;28;20455;-67
2021/07/22 03:30:43;;;;;;;1.27;1.13;;;15.30;98.00;;;;;;5112976;28;20478;-68
2021/07/22 03:33:12;;;;;;;1.97;1.23;;;15.20;98.00;;;;;;5112538;28;20463;-69
2021/07/22 03:35:41;;;;;;;1.20;1.00;;;15.10;98.00;;;;;;5112900;28;20485;-68
2021/07/22 03:38:10;;;;;;;3.37;1.87;;;15.10;98.00;;;;;;5111281;28;20459;-70
2021/07/22 03:40:37;;;;;;;1.67;1.53;;;15.10;98.00;;;;;;5112945;28;20489;-68
2021/07/22 03:43:04;;;;;;;1.27;1.13;;;15.10;98.00;;;;;;5112536;28;20470;-69
2021/07/22 03:45:31;;;;;;;1.30;1.27;;;15.10;98.00;;;;;;5112560;28;20459;-68
2021/07/22 03:48:00;;;;;;;2.67;1.87;;;15.30;98.00;;;;;;5112418;28;20881;-69
2021/07/22 03:50:28;;;;;;;1.53;1.40;;;15.40;98.00;;;;;;5112649;28;20492;-68
2021/07/22 03:52:56;;;;;;;2.70;1.40;;;15.20;98.00;;;;;;5112093;28;20448;-69
2021/07/22 03:55:27;;;;;;;1.47;1.10;;;15.10;98.00;;;;;;5112284;28;20554;-68
2021/07/22 03:57:56;;;;;;;2.33;1.30;;;15.10;98.00;;;;;;5112270;28;20467;-68
2021/07/22 04:00:23;;;;;;;2.33;1.57;;;15.10;98.00;;;;;;5112338;28;21045;-68
2021/07/22 04:03:01;;;;;;;1.40;1.40;;;15.10;98.00;;;;;;5111948;28;20464;-69
2021/07/22 04:05:29;;;;;;;1.30;1.20;;;15.30;98.00;;;;;;5112313;28;20459;-69
2021/07/22 04:07:58;;;;;;;1.20;1.10;;;15.30;98.00;;;;;;5110867;28;20510;-69
2021/07/22 04:10:28;;;;;;;1.20;1.20;;;15.20;98.00;;;;;;5112027;28;21044;-69
2021/07/22 04:12:56;;;;;;;2.40;1.53;;;15.10;98.00;;;;;;5111582;28;20519;-69
2021/07/22 04:15:24;;;;;;;3.87;1.77;;;15.10;98.00;;;;;;5112144;28;20469;-69
2021/07/22 04:17:51;;;;;;;2.00;1.30;;;15.10;98.00;;;;;;5110887;28;20462;-69
2021/07/22 04:20:19;;;;;;;1.70;1.30;;;15.10;98.00;;;;;;5111646;28;20527;-67
2021/07/22 04:22:46;;;;;;;1.80;1.50;;;15.20;98.00;;;;;;5112181;28;20459;-68
2021/07/22 04:25:14;;;;;;;1.80;1.53;;;15.30;98.00;;;;;;5110806;28;20457;-69
2021/07/22 04:27:43;;;;;;;2.10;1.60;;;15.30;98.00;;;;;;5111838;28;20463;-68
2021/07/22 04:30:13;;;;;;;1.40;1.10;;;15.40;98.00;;;;;;5112024;28;20539;-69
2021/07/22 04:32:40;;;;;;;2.50;1.23;;;15.60;98.00;;;;;;5110985;28;20447;-69
2021/07/22 04:35:08;;;;;;;1.40;1.30;;;15.70;98.00;;;;;;5112133;28;20459;-68
2021/07/22 04:37:36;;;;;;;1.60;1.33;;;15.70;98.00;;;;;;5112065;28;20528;-68
2021/07/22 04:40:06;;;;;;;3.77;1.20;;;15.60;98.00;;;;;;5111654;28;20466;-67
2021/07/22 04:42:33;;;;;;;1.50;1.23;;;15.70;98.00;;;;;;5112070;28;20455;-68
2021/07/22 04:45:03;;;;;;;1.20;1.17;;;15.80;98.00;;;;;;5112140;28;20454;-69
2021/07/22 04:47:31;;;;;;;1.40;1.37;;;16.00;98.00;;;;;;5112339;28;20476;-68
2021/07/22 04:49:58;;;;;;;2.10;1.20;;;16.10;98.00;;;;;;5111818;28;20554;-69
2021/07/22 04:52:25;;;;;;;1.73;1.40;;;16.30;98.00;;;;;;5111741;28;20489;-68
2021/07/22 04:54:54;;;;;;;2.77;1.40;;;16.20;98.00;;;;;;5111235;28;20458;-69
2021/07/22 04:57:21;;;;;;;1.60;1.27;;;16.30;98.00;;;;;;5111561;28;20459;-68
2021/07/22 04:59:48;;;;;;;1.70;1.27;;;16.40;98.00;;;;;;5111782;28;20515;-68
2021/07/22 05:02:19;;;;;;;1.87;1.40;;;16.50;98.00;;;;;;5111871;28;20523;-69
2021/07/22 05:04:46;;;;;;;1.90;1.90;;;16.50;98.00;;;;;;5111268;28;20449;-68
2021/07/22 05:07:14;;;;;;;1.57;1.30;;;16.40;98.00;;;;;;5111740;28;20454;-70
2021/07/22 05:09:41;;;;;;;3.57;1.87;;;16.50;98.00;;;;;;5111481;28;20564;-69
2021/07/22 05:12:09;;;;;;;1.77;1.40;;;16.50;98.00;;;;;;5111479;28;20483;-70
2021/07/22 05:14:37;;;;;;;3.00;1.70;;;16.50;98.00;;;;;;5111501;28;20450;-68
2021/07/22 05:17:05;;;;;;;1.30;1.20;;;16.60;98.00;;;;;;5093499;28;20822;-69
2021/07/22 05:19:33;;;;;;;1.80;1.30;;;16.60;98.00;;;;;;5111362;28;20462;-69
2021/07/22 05:22:00;;;;;;;2.60;2.30;;;16.70;98.00;;;;;;5111401;28;20506;-69
2021/07/22 05:24:27;;;;;;;1.90;1.30;;;16.70;98.00;;;;;;5111448;28;20447;-69
2021/07/22 05:26:54;;;;;;;2.17;1.50;;;16.90;98.00;;;;;;5111310;28;20491;-69
2021/07/22 05:29:21;;;;;;;1.80;1.30;;;17.10;98.00;;;;;;5111129;28;20483;-69
2021/07/22 05:31:49;;;;;;;1.30;1.20;;;17.20;98.00;;;;;;5113161;28;20451;-70
2021/07/22 05:34:17;;;;;;;1.50;1.27;;;17.20;98.00;;;;;;5115171;28;20497;-69
2021/07/22 05:36:45;;;;;;;1.83;1.50;;;17.20;98.00;;;;;;5096937;28;20894;-70
2021/07/22 05:39:12;;;;;;;2.10;1.50;;;17.40;98.00;;;;;;5114974;28;20466;-70
2021/07/22 05:41:39;;;;;;;1.87;1.60;;;17.40;98.00;;;;;;5114935;28;20504;-70
2021/07/22 05:44:07;;;;;;;1.80;1.80;;;17.20;98.00;;;;;;5115133;28;20512;-70
2021/07/22 05:46:34;;;;;;;1.60;1.30;;;17.20;98.00;;;;;;5114983;28;20489;-70
2021/07/22 05:49:01;;;;;;;1.60;1.40;;;17.20;98.00;;;;;;5114984;28;20542;-70
2021/07/22 05:51:30;;;;;;;1.40;1.30;;;17.20;98.00;;;;;;5113583;28;20886;-69
2021/07/22 05:54:00;;;;;;;2.87;2.10;;;17.20;98.00;;;;;;5114665;28;20467;-69
2021/07/22 05:56:27;;;;;;;1.43;1.30;;;17.40;98.00;;;;;;5114712;28;20451;-69
2021/07/22 05:58:55;;;;;;;5.63;2.30;;;17.50;98.00;;;;;;5114848;28;20459;-72
2021/07/22 06:01:22;;;;;;;1.60;1.40;;;17.60;98.00;;;;;;5114868;28;20562;-73
2021/07/22 06:03:49;;;;;;;1.73;1.50;;;17.80;98.00;;;;;;5114502;28;20516;-72
2021/07/22 06:06:17;;;;;;;1.43;1.27;;;17.80;98.00;;;;;;5114730;28;20516;-72
2021/07/22 06:08:44;;;;;;;2.43;1.50;;;17.80;98.00;;;;;;5114546;28;20497;-73
2021/07/22 06:11:13;;;;;;;3.53;1.80;;;17.90;98.00;;;;;;5114260;28;20522;-71
2021/07/22 06:13:40;;;;;;;1.90;1.73;;;17.90;98.00;;;;;;5114195;28;20459;-72
2021/07/22 06:16:10;;;;;;;2.47;1.50;;;17.90;98.00;;;;;;5114182;28;20501;-71
2021/07/22 06:18:37;;;;;;;1.50;1.40;;;18.00;98.00;;;;;;5114252;28;20486;-71
2021/07/22 06:21:05;;;;;;;1.60;1.43;;;18.00;98.00;;;;;;5114145;28;20471;-72
2021/07/22 06:23:32;;;;;;;2.70;2.50;;;18.00;98.00;;;;;;5112841;28;20900;-70
2021/07/22 06:25:59;;;;;;;2.40;1.90;;;18.10;98.00;;;;;;5113966;28;20487;-71
2021/07/22 06:28:28;;;;;;;1.67;1.50;;;18.10;98.00;;;;;;5113945;28;20974;-72
2021/07/22 06:30:56;;;;;;;2.10;1.30;;;18.30;98.00;;;;;;5113732;28;21004;-71
2021/07/22 06:33:25;;;;;;;2.77;1.83;;;18.40;98.00;;;;;;5112868;28;20583;-72
2021/07/22 06:35:52;;;;;;;1.97;1.40;;;18.60;98.00;;;;;;5113277;28;20463;-71
2021/07/22 06:38:29;;;;;;;1.60;1.60;;;18.70;98.00;;;;;;5113233;28;20881;-72
2021/07/22 06:40:56;;;;;;;1.50;1.40;;;18.80;98.00;;;;;;5112175;28;20504;-71
2021/07/22 06:43:23;;;;;;;2.23;1.80;;;18.80;98.00;;;;;;5113450;28;20465;-72
2021/07/22 06:45:52;;;;;;;1.80;1.60;;;18.80;98.00;;;;;;5113817;28;20451;-71
2021/07/22 06:48:19;;;;;;;2.43;2.17;;;18.90;98.00;;;;;;5113552;28;20528;-71
2021/07/22 06:50:46;;;;;;;2.47;1.67;;;18.90;98.00;;;;;;5113498;28;20515;-70
2021/07/22 06:53:14;;;;;;;2.73;1.50;;;18.90;98.00;;;;;;5113541;28;20474;-72
2021/07/22 06:55:41;;;;;;;1.87;1.60;;;18.90;98.00;;;;;;5113534;28;20520;-72
2021/07/22 06:58:10;;;;;;;1.33;1.30;;;19.00;98.00;;;;;;5113654;28;20455;-72
2021/07/22 07:00:38;;;;;;;2.00;1.20;;;19.20;98.00;;;;;;5113494;28;20532;-71
2021/07/22 07:03:09;;;;;;;1.67;1.43;;;19.20;98.00;;;;;;5095537;28;20451;-71
2021/07/22 07:05:37;;;;;;;1.30;1.30;;;19.40;98.00;;;;;;5113287;28;20478;-71
2021/07/22 07:08:05;;;;;;;1.67;1.50;;;19.40;98.00;;;;;;5111851;28;20455;-71
2021/07/22 07:10:32;;;;;;;1.60;1.37;;;19.50;98.00;;;;;;5113284;28;20552;-71
2021/07/22 07:13:00;;;;;;;1.73;1.63;;;19.50;98.00;;;;;;5113414;28;20455;-71
2021/07/22 07:15:27;;;;;;;2.37;1.80;;;19.50;98.00;;;;;;5113029;28;20933;-72
2021/07/22 07:17:56;;;;;;;4.93;2.00;;;19.60;98.00;;;;;;5113340;28;20459;-71
2021/07/22 07:20:24;;;;;;;1.90;1.80;;;19.60;98.00;;;;;;5113001;28;20479;-71
2021/07/22 07:22:53;;;;;;;2.03;1.40;;;19.70;98.00;;;;;;5113268;28;20461;-72
2021/07/22 07:25:21;;;;;;;1.60;1.60;;;19.70;98.00;;;;;;5112659;28;20443;-69
2021/07/22 07:27:48;;;;;;;1.30;1.20;;;19.80;98.00;;;;;;5100864;28;20462;-69
2021/07/22 07:30:19;;;;;;;1.40;1.40;;;19.90;98.00;;;;;;5091437;28;20538;-69
2021/07/22 07:32:48;;;;;;;1.90;1.50;;;20.10;98.00;;;;;;5104111;28;20561;-68
2021/07/22 07:35:26;;;;;;;1.60;1.60;;;20.10;98.00;;;;;;5103322;28;20891;-68
2021/07/22 07:37:58;;;;;;;1.60;1.50;;;20.20;98.00;;;;;;5096052;28;20512;-71
2021/07/22 07:40:27;;;;;;;2.00;1.40;;;20.20;98.00;;;;;;5098281;28;20524;-71
2021/07/22 07:42:54;;;;;;;4.03;2.30;;;20.30;98.00;;;;;;5083407;28;20579;-71
2021/07/22 07:45:21;;;;;;;2.70;1.70;;;20.40;98.00;;;;;;5096875;28;20897;-71
2021/07/22 07:47:47;;;;;;;3.63;1.90;;;20.40;98.00;;;;;;5086857;28;20875;-70
2021/07/22 07:50:16;;;;;;;2.50;2.20;;;20.60;98.00;;;;;;5092889;28;20480;-71
2021/07/22 07:52:43;;;;;;;2.03;1.60;;;20.70;98.00;;;;;;5095972;28;20494;-71
2021/07/22 07:55:12;;;;;;;2.00;1.90;;;20.80;98.00;;;;;;5097648;28;21024;-71
2021/07/22 07:57:41;;;;;;;2.27;1.97;;;21.00;98.00;;;;;;5104157;28;20449;-68
2021/07/22 08:00:10;;;;;;;1.20;1.20;;;21.10;98.00;;;;;;5106429;28;21153;-70
2021/07/22 08:02:39;;;;;;;2.83;1.93;;;21.20;98.00;;;;;;5092922;28;20455;-71
2021/07/22 08:05:06;;;;;;;1.73;1.43;;;21.30;98.00;;;;;;5105432;28;20459;-72
2021/07/22 08:07:34;;;;;;;2.00;1.80;;;21.40;98.00;;;;;;5099373;28;20455;-69
2021/07/22 08:10:02;;;;;;;3.47;1.80;;;21.50;98.00;;;;;;5092952;28;20460;-69
2021/07/22 08:12:30;;;;;;;3.40;1.67;;;21.60;98.00;;;;;;5095563;28;21018;-67
2021/07/22 08:14:57;;;;;;;2.97;2.03;;;21.70;98.00;;;;;;5092479;28;20552;-70
2021/07/22 08:17:26;;;;;;;1.50;1.40;;;21.90;98.00;;;;;;5099889;28;20455;-69
2021/07/22 08:19:58;;;;;;;1.70;1.57;;;22.00;98.00;;;;;;5090356;28;20949;-69
2021/07/22 08:22:26;;;;;;;1.90;1.70;;;22.10;98.00;;;;;;5096952;28;20964;-69
2021/07/22 08:24:53;;;;;;;2.07;1.70;;;22.20;98.00;;;;;;5099178;28;20459;-68
2021/07/22 08:27:26;;;;;;;1.60;1.40;;;22.40;98.00;;;;;;5097332;28;20459;-69
2021/07/22 08:29:55;;;;;;;2.40;1.87;;;22.60;98.00;;;;;;5099098;28;20535;-70
2021/07/22 08:32:22;;;;;;;2.90;1.73;;;22.70;97.60;;;;;;5086605;28;20486;-69
2021/07/22 08:34:50;;;;;;;2.60;1.70;;;22.80;96.70;;;;;;5107632;28;20455;-69
2021/07/22 08:37:18;;;;;;;3.60;1.90;;;22.90;97.50;;;;;;5092197;28;20508;-69
2021/07/22 08:39:46;;;;;;;2.00;1.60;;;22.90;96.50;;;;;;5099227;28;20451;-70
2021/07/22 08:42:14;;;;;;;3.50;2.03;;;23.00;98.00;;;;;;5098630;28;20856;-70
2021/07/22 08:44:43;;;;;;;1.60;1.43;;;23.20;96.80;;;;;;5105040;28;20451;-69
2021/07/22 08:47:12;;;;;;;1.90;1.77;;;23.30;96.60;;;;;;5107518;28;20482;-71
2021/07/22 08:49:40;;;;;;;1.63;1.40;;;23.50;97.20;;;;;;5097667;28;20495;-69
2021/07/22 08:52:10;;;;;;;2.03;1.60;;;23.60;95.40;;;;;;5090928;28;20491;-70
2021/07/22 08:54:38;;;;;;;3.40;1.80;;;23.70;94.00;;;;;;5084207;28;20956;-69
2021/07/22 08:57:08;;;;;;;1.93;1.63;;;23.80;93.30;;;;;;5106716;28;20542;-70
2021/07/22 08:59:35;;;;;;;2.00;1.60;;;23.80;92.40;;;;;;5100342;28;20492;-70
2021/07/22 09:02:04;;;;;;;2.23;1.60;;;23.90;94.10;;;;;;5105668;28;20531;-72
2021/07/22 09:04:49;;;;;;;1.80;1.73;;;24.00;93.80;;;;;;5090598;28;20810;-70
2021/07/22 09:07:18;;;;;;;5.37;1.97;;;24.20;92.30;;;;;;5100847;28;20454;-69
2021/07/22 09:10:05;;;;;;;2.33;1.80;;;24.40;92.00;;;;;;5094497;28;20515;-70
2021/07/22 09:12:36;;;;;;;1.97;1.67;;;24.40;91.10;;;;;;5088593;28;20499;-70
2021/07/22 09:15:05;;;;;;;2.93;2.00;;;24.50;91.40;;;;;;5097584;28;20465;-70
2021/07/22 09:17:32;;;;;;;3.50;2.20;;;24.60;90.80;;;;;;5101990;28;20468;-70
2021/07/22 09:20:01;;;;;;;2.83;1.80;;;24.70;91.10;;;;;;5102467;28;20464;-69
2021/07/22 09:22:34;;;;;;;2.80;1.90;;;24.80;92.00;;;;;;5102352;28;20487;-70
2021/07/22 09:25:01;;;;;;;2.70;2.10;;;24.90;93.40;;;;;;5096246;28;20521;-69
2021/07/22 09:27:39;;;;;;;2.60;2.03;;;25.00;90.40;;;;;;5097980;28;20552;-69
2021/07/22 09:30:09;;;;;;;2.47;2.00;;;25.20;91.40;;;;;;5094229;28;20482;-69
2021/07/22 09:32:37;;;;;;;2.27;1.60;;;25.40;88.80;;;;;;5106493;28;20486;-69
2021/07/22 09:35:10;;;;;;;2.93;2.33;;;25.50;88.40;;;;;;5106779;28;20499;-69
2021/07/22 09:37:41;;;;;;;3.07;2.27;;;25.70;88.30;;;;;;5107330;28;20497;-70
2021/07/22 09:40:10;;;;;;;1.77;1.60;;;25.80;88.40;;;;;;5095380;28;20505;-69
2021/07/22 09:42:45;;;;;;;2.00;1.60;;;26.00;88.60;;;;;;5107403;28;20512;-70
2021/07/22 09:45:17;;;;;;;3.67;2.13;;;26.10;85.80;;;;;;5103935;28;20606;-70
2021/07/22 09:47:45;;;;;;;2.97;1.90;;;26.10;84.80;;;;;;5102158;28;20464;-69
2021/07/22 09:50:16;;;;;;;2.33;1.73;;;26.20;86.10;;;;;;5106696;28;20512;-70
2021/07/22 09:52:44;;;;;;;2.20;1.93;;;26.30;85.30;;;;;;5102198;28;20490;-70
2021/07/22 09:55:29;;;;;;;2.90;2.00;;;26.30;86.60;;;;;;5101394;28;20459;-70
2021/07/22 09:57:57;;;;;;;2.50;2.07;;;26.40;83.20;;;;;;5093047;28;20460;-69
2021/07/22 10:00:25;;;;;;;2.60;1.90;;;26.60;82.90;;;;;;5092174;28;20517;-71
2021/07/22 10:02:54;;;;;;;1.80;1.53;;;26.60;80.60;;;;;;5110167;28;20464;-71
2021/07/22 10:05:27;;;;;;;5.13;1.90;;;26.60;78.10;;;;;;5101467;28;20506;-70
2021/07/22 10:07:56;;;;;;;3.40;1.97;;;26.80;80.30;;;;;;5102154;28;20459;-73
2021/07/22 10:10:25;;;;;;;2.50;2.10;;;27.00;79.40;;;;;;5101384;28;20460;-72
2021/07/22 10:12:56;;;;;;;2.20;1.87;;;27.10;82.50;;;;;;5109202;28;20981;-71
2021/07/22 10:15:27;;;;;;;4.00;2.20;;;27.10;80.60;;;;;;5096615;28;20553;-71
2021/07/22 10:17:56;;;;;;;2.83;1.87;;;27.10;80.30;;;;;;5100616;28;20942;-71
2021/07/22 10:20:29;;;;;;;2.27;1.90;;;27.00;81.10;;;;;;5100063;28;20455;-71
2021/07/22 10:22:57;;;;;;;2.20;1.70;;;27.00;81.20;;;;;;5092126;28;20472;-68
2021/07/22 10:25:25;;;;;;;2.20;1.83;;;27.10;80.30;;;;;;5092590;28;20451;-70
2021/07/22 10:27:54;;;;;;;2.90;1.80;;;27.30;81.40;;;;;;5100621;28;20499;-68
2021/07/22 10:30:22;;;;;;;2.60;2.30;;;27.40;79.90;;;;;;5100705;28;20467;-68
2021/07/22 10:32:55;;;;;;;4.17;2.33;;;27.60;78.40;;;;;;5097847;28;20873;-71
2021/07/22 10:35:23;;;;;;;2.77;1.70;;;27.70;77.80;;;;;;5095471;28;20472;-71
2021/07/22 10:38:14;;;;;;;2.63;2.00;;;27.70;78.00;;;;;;5097965;28;20464;-72
2021/07/22 10:40:46;;;;;;;2.63;2.03;;;27.90;79.50;;;;;;5092760;28;20448;-72
2021/07/22 10:43:41;;;;;;;3.00;2.20;;;28.00;78.60;;;;;;5098284;28;20547;-71
2021/07/22 10:46:20;;;;;;;2.33;2.00;;;28.10;81.20;;;;;;5092909;28;20554;-71
2021/07/22 10:48:47;;;;;;;2.43;1.90;;;28.20;80.40;;;;;;5091815;28;20539;-71
2021/07/22 10:51:16;;;;;;;3.10;2.00;;;28.30;80.70;;;;;;5091855;28;20488;-71
2021/07/22 10:53:53;;;;;;;2.27;1.80;;;28.40;77.70;;;;;;5100825;28;20463;-70
2021/07/22 10:56:52;;;;;;;3.53;2.13;;;28.60;78.50;;;;;;5109253;28;20452;-70
2021/07/22 10:59:19;;;;;;;3.03;1.90;;;28.70;78.90;;;;;;5099998;28;20457;-74
2021/07/22 11:01:54;;;;;;;3.13;2.00;;;28.90;76.90;;;;;;5094317;28;20467;-70
2021/07/22 11:04:45;;;;;;;3.87;2.37;;;29.10;77.80;;;;;;5091785;28;20458;-70
2021/07/22 11:07:26;;;;;;;3.97;2.60;;;29.10;78.30;;;;;;5083423;28;20546;-69
2021/07/22 11:09:59;;;;;;;2.27;2.00;;;29.10;77.50;;;;;;5087546;28;21301;-69
2021/07/22 11:12:48;;;;;;;2.63;2.20;;;29.20;76.70;;;;;;5109320;28;20499;-70
2021/07/22 11:16:01;;;;;;;4.00;2.40;;;29.30;77.50;;;;;;5102960;28;20460;-69
2021/07/22 11:18:54;;;;;;;3.97;2.43;;;29.40;77.00;;;;;;5093577;28;20627;-69
2021/07/22 11:21:26;;;;;;;4.17;2.30;;;29.40;76.80;;;;;;5109376;28;21009;-71
2021/07/22 11:23:54;;;;;;;3.37;2.30;;;29.30;76.10;;;;;;5093701;28;20481;-71
2021/07/22 11:26:26;;;;;;;3.53;2.30;;;29.40;76.30;;;;;;5105264;28;20520;-71
2021/07/22 11:28:53;;;;;;;3.30;2.07;;;29.50;76.20;;;;;;5089248;28;20464;-71
2021/07/22 11:31:21;;;;;;;4.23;2.73;;;29.60;74.70;;;;;;5100486;28;21032;-71
2021/07/22 11:33:48;;;;;;;3.20;2.43;;;29.70;75.80;;;;;;5091288;28;20481;-71
2021/07/22 11:36:22;;;;;;;3.53;2.70;;;29.90;76.50;;;;;;5096897;28;20551;-71
2021/07/22 11:38:52;;;;;;;4.60;2.80;;;30.00;75.80;;;;;;5105112;28;20964;-71
2021/07/22 11:41:22;;;;;;;2.27;2.00;;;30.20;75.60;;;;;;5092309;28;20530;-71
2021/07/22 11:43:55;;;;;;;4.37;2.17;;;30.40;74.10;;;;;;5090561;28;20542;-71
2021/07/22 11:46:39;;;;;;;2.70;2.13;;;30.00;73.10;;;;;;5108798;28;20471;-70
2021/07/22 11:49:08;;;;;;;3.20;2.23;;;30.00;73.80;;;;;;5112556;28;20921;-71
2021/07/22 11:51:35;;;;;;;8.73;3.00;;;30.10;76.50;;;;;;5095732;28;20440;-71
2021/07/22 11:54:03;;;;;;;3.40;2.30;;;30.30;72.00;;;;;;5092194;28;20509;-71
2021/07/22 11:56:32;;;;;;;3.93;2.67;;;30.40;71.40;;;;;;5092206;28;20509;-71
2021/07/22 11:59:04;;;;;;;4.50;2.47;;;30.60;71.70;;;;;;5092106;28;21104;-71
2021/07/22 12:01:32;;;;;;;4.67;2.80;;;30.90;72.30;;;;;;5092119;28;20950;-71
2021/07/22 12:04:00;;;;;;;3.93;2.63;;;31.10;72.50;;;;;;5091873;28;20513;-71
2021/07/22 12:06:28;;;;;;;3.97;2.63;;;31.10;69.30;;;;;;5092075;28;20487;-71
2021/07/22 12:09:06;;;;;;;4.70;2.40;;;31.10;71.10;;;;;;5091927;28;20452;-71
2021/07/22 12:11:47;;;;;;;4.03;2.20;;;31.20;71.40;;;;;;5091920;28;20459;-71
2021/07/22 12:14:25;;;;;;;3.13;2.20;;;31.30;71.60;;;;;;5091013;28;20945;-72
2021/07/22 12:16:56;;;;;;;2.70;2.43;;;31.10;70.40;;;;;;5091908;28;20460;-71
2021/07/22 12:19:25;;;;;;;4.17;2.20;;;31.10;71.40;;;;;;5091866;28;20509;-71
2021/07/22 12:22:17;;;;;;;5.10;2.80;;;31.20;70.70;;;;;;5092040;28;20517;-71
2021/07/22 12:24:45;;;;;;;3.93;2.63;;;31.20;69.30;;;;;;5091765;28;20505;-71
2021/07/22 12:27:38;;;;;;;3.40;2.47;;;31.10;70.00;;;;;;5090670;28;20463;-71
2021/07/22 12:30:14;;;;;;;3.07;2.07;;;31.10;70.10;;;;;;5091655;28;20494;-71
2021/07/22 12:32:50;;;;;;;5.30;2.83;;;31.10;69.70;;;;;;5091877;28;20487;-71
2021/07/22 12:35:29;;;;;;;4.30;2.60;;;31.00;70.60;;;;;;5091627;28;20491;-71
2021/07/22 12:37:58;;;;;;;3.13;2.00;;;31.10;72.10;;;;;;5091866;28;20851;-71
2021/07/22 12:40:40;;;;;;;2.87;2.27;;;31.30;69.10;;;;;;5093116;28;20513;-71
2021/07/22 12:43:09;;;;;;;3.83;2.60;;;31.30;70.10;;;;;;5095316;28;20981;-71
2021/07/22 12:45:38;;;;;;;3.23;2.37;;;31.30;71.90;;;;;;5094501;28;20512;-71
2021/07/22 12:48:06;;;;;;;3.50;2.30;;;31.50;71.70;;;;;;5095808;28;20463;-71
2021/07/22 12:50:35;;;;;;;3.20;2.33;;;31.50;74.10;;;;;;5094664;28;20522;-71
2021/07/22 12:53:03;;;;;;;3.73;2.40;;;31.60;71.70;;;;;;5095414;28;20484;-71
2021/07/22 12:55:32;;;;;;;3.20;2.00;;;31.70;71.90;;;;;;5095212;28;20462;-72
2021/07/22 12:57:59;;;;;;;3.60;2.47;;;31.50;72.20;;;;;;5095387;28;20873;-71
2021/07/22 13:00:27;;;;;;;4.10;2.70;;;31.60;72.20;;;;;;5095476;28;20489;-71